Time;durP1;ratioP1;P1;durP2;ratioP2;P2;SDS_P1;SDS_P2;PMS_P1;PMS_P2;Temp;Humidity;BMP_temperature;BMP_pressure;BME280_temperature;BME280_humidity;BME280_pressure;Samples;Min_cycle;Max_cycle;Signal;HPM_P1;HPM_P2
2023/01/23 00:00:15;;;;;;;9.45;4.10;;;;;;;;;;4993344;28;20037;-68
2023/01/23 00:02:41;;;;;;;10.00;3.72;;;;;;;;;;5010773;28;20040;-68
2023/01/23 00:05:07;;;;;;;11.07;4.05;;;;;;;;;;5011903;28;20028;-68
2023/01/23 00:07:33;;;;;;;10.85;5.22;;;;;;;;;;5008754;28;20053;-69
2023/01/23 00:09:59;;;;;;;11.38;5.93;;;;;;;;;;5011458;28;20064;-69
2023/01/23 00:12:26;;;;;;;12.57;6.65;;;;;;;;;;5008041;28;20034;-69
2023/01/23 00:14:52;;;;;;;17.52;9.90;;;;;;;;;;4996343;28;20037;-68
2023/01/23 00:17:18;;;;;;;12.13;6.35;;;;;;;;;;5008824;28;20356;-69
2023/01/23 00:19:44;;;;;;;12.45;6.35;;;;;;;;;;5010564;28;20059;-69
2023/01/23 00:22:10;;;;;;;13.27;6.50;;;;;;;;;;5009833;28;20098;-70
2023/01/23 00:24:36;;;;;;;16.00;8.85;;;;;;;;;;5009866;28;20033;-69
2023/01/23 00:27:02;;;;;;;13.50;7.22;;;;;;;;;;5013824;28;20463;-69
2023/01/23 00:29:29;;;;;;;13.27;6.47;;;;;;;;;;5006867;28;20101;-69
2023/01/23 00:31:55;;;;;;;10.52;4.85;;;;;;;;;;5013490;28;20032;-68
2023/01/23 00:34:21;;;;;;;14.90;8.00;;;;;;;;;;5012126;28;20494;-69
2023/01/23 00:36:47;;;;;;;17.35;10.23;;;;;;;;;;5015485;28;20442;-68
2023/01/23 00:39:18;;;;;;;14.00;7.28;;;;;;;;;;4997692;28;20471;-69
2023/01/23 00:41:45;;;;;;;11.10;5.32;;;;;;;;;;5015169;28;20029;-69
2023/01/23 00:44:11;;;;;;;13.93;7.90;;;;;;;;;;5017205;28;20372;-68
2023/01/23 00:46:37;;;;;;;11.20;5.82;;;;;;;;;;4996189;28;20029;-69
2023/01/23 00:49:04;;;;;;;10.25;5.05;;;;;;;;;;5017051;28;20024;-68
2023/01/23 00:51:30;;;;;;;10.45;4.60;;;;;;;;;;5013054;28;20021;-68
2023/01/23 00:53:56;;;;;;;14.25;7.15;;;;;;;;;;5015817;28;20036;-69
2023/01/23 00:56:22;;;;;;;12.43;5.28;;;;;;;;;;4999741;28;20029;-68
2023/01/23 00:58:49;;;;;;;13.40;4.38;;;;;;;;;;5016173;28;20040;-69
2023/01/23 01:01:15;;;;;;;11.27;3.78;;;;;;;;;;4999210;28;20033;-69
2023/01/23 01:03:42;;;;;;;10.55;4.40;;;;;;;;;;5010842;28;20376;-69
2023/01/23 01:06:08;;;;;;;;;;;;;;;;;;5013918;28;20147;-69
2023/01/23 01:08:34;;;;;;;14.55;4.43;;;;;;;;;;5012337;28;19928;-69
2023/01/23 01:11:00;;;;;;;14.52;4.72;;;;;;;;;;5012128;28;20040;-69
2023/01/23 01:13:27;;;;;;;15.30;4.30;;;;;;;;;;5009671;28;20047;-69
2023/01/23 01:15:54;;;;;;;12.43;4.38;;;;;;;;;;4999134;28;20028;-69
2023/01/23 01:18:21;;;;;;;15.30;4.60;;;;;;;;;;5009707;28;20017;-69
2023/01/23 01:20:48;;;;;;;10.80;3.97;;;;;;;;;;5014819;28;20056;-69
2023/01/23 01:23:14;;;;;;;13.15;4.40;;;;;;;;;;4994843;28;20029;-69
2023/01/23 01:25:40;;;;;;;;;;;;;;;;;;5011090;28;20786;-69
2023/01/23 01:28:06;;;;;;;14.50;4.38;;;;;;;;;;5013859;28;19923;-69
2023/01/23 01:30:33;;;;;;;13.57;4.75;;;;;;;;;;5012024;28;20044;-70
2023/01/23 01:32:59;;;;;;;14.45;4.68;;;;;;;;;;5013200;28;20127;-70
2023/01/23 01:35:25;;;;;;;14.35;4.90;;;;;;;;;;5011223;28;20037;-69
2023/01/23 01:37:51;;;;;;;11.68;3.78;;;;;;;;;;4997671;28;20048;-69
2023/01/23 01:40:19;;;;;;;12.30;4.45;;;;;;;;;;5017502;28;20033;-69
2023/01/23 01:42:57;;;;;;;15.40;4.80;;;;;;;;;;5014838;28;20525;-69
2023/01/23 01:45:52;;;;;;;11.82;3.78;;;;;;;;;;5011822;28;20043;-68
2023/01/23 01:48:21;;;;;;;11.23;4.20;;;;;;;;;;4994127;28;20527;-68
2023/01/23 01:50:47;;;;;;;12.65;4.00;;;;;;;;;;5012927;28;20037;-69
2023/01/23 01:53:13;;;;;;;14.48;4.38;;;;;;;;;;5013503;28;20084;-68
2023/01/23 01:55:39;;;;;;;12.32;4.43;;;;;;;;;;4987824;28;20590;-69
2023/01/23 01:58:06;;;;;;;16.25;4.93;;;;;;;;;;5016153;28;20534;-69
2023/01/23 02:00:32;;;;;;;;;;;;;;;;;;5013349;28;20028;-68
2023/01/23 02:03:00;;;;;;;14.50;4.30;;;;;;;;;;5015437;28;19912;-68
2023/01/23 02:05:28;;;;;;;16.95;4.70;;;;;;;;;;4996089;28;20033;-68
2023/01/23 02:07:56;;;;;;;14.25;4.47;;;;;;;;;;5008045;28;20475;-68
2023/01/23 02:10:23;;;;;;;15.13;4.82;;;;;;;;;;5012264;28;20029;-68
2023/01/23 02:12:49;;;;;;;;;;;;;;;;;;5012439;28;20171;-69
2023/01/23 02:15:15;;;;;;;18.13;5.78;;;;;;;;;;5013739;28;20428;-68
2023/01/23 02:17:41;;;;;;;;;;;;;;;;;;5008000;28;20044;-69
2023/01/23 02:20:17;;;;;;;17.90;7.05;;;;;;;;;;4995544;28;19917;-69
2023/01/23 02:23:01;;;;;;;21.10;7.30;;;;;;;;;;5009407;28;20032;-69
2023/01/23 02:25:40;;;;;;;24.20;8.00;;;;;;;;;;5010608;28;20063;-69
2023/01/23 02:28:07;;;;;;;20.73;7.40;;;;;;;;;;5015153;28;20095;-68
2023/01/23 02:30:34;;;;;;;21.58;7.28;;;;;;;;;;4993976;28;20036;-68
2023/01/23 02:33:26;;;;;;;19.73;6.80;;;;;;;;;;5012258;28;20122;-68
2023/01/23 02:35:53;;;;;;;15.95;6.18;;;;;;;;;;4966658;28;20495;-68
2023/01/23 02:38:22;;;;;;;20.70;6.80;;;;;;;;;;5009852;28;20363;-68
2023/01/23 02:40:48;;;;;;;17.13;5.93;;;;;;;;;;4992348;28;20348;-68
2023/01/23 02:43:15;;;;;;;18.92;5.47;;;;;;;;;;5014796;28;20574;-68
2023/01/23 02:45:42;;;;;;;17.42;6.30;;;;;;;;;;5010977;28;20041;-68
2023/01/23 02:48:09;;;;;;;18.40;6.00;;;;;;;;;;4998611;28;20033;-69
2023/01/23 02:50:35;;;;;;;16.27;6.00;;;;;;;;;;5007959;28;20468;-68
2023/01/23 02:53:01;;;;;;;15.50;5.90;;;;;;;;;;5014772;28;20317;-68
2023/01/23 02:55:31;;;;;;;17.27;6.13;;;;;;;;;;4995827;28;20153;-68
2023/01/23 03:00:14;;;;;;;14.43;5.50;;;;;;;;;;5013945;28;20100;-68
2023/01/23 03:00:44;;;;;;;17.30;5.72;;;;;;;;;;5015879;28;20052;-70
2023/01/23 03:03:11;;;;;;;16.40;5.65;;;;;;;;;;5015736;28;20025;-69
2023/01/23 03:05:37;;;;;;;;;;;;;;;;;;5011431;28;20040;-68
2023/01/23 03:08:03;;;;;;;17.05;5.70;;;;;;;;;;5016169;28;20054;-69
2023/01/23 03:10:30;;;;;;;14.80;5.10;;;;;;;;;;5009450;28;20335;-69
2023/01/23 03:13:06;;;;;;;15.10;5.45;;;;;;;;;;5012730;28;20448;-68
2023/01/23 03:15:33;;;;;;;19.20;6.25;;;;;;;;;;5009926;28;20032;-69
2023/01/23 03:17:59;;;;;;;18.60;6.43;;;;;;;;;;4998637;28;20333;-69
2023/01/23 03:20:26;;;;;;;18.58;6.63;;;;;;;;;;5004266;28;20119;-68
2023/01/23 03:22:55;;;;;;;16.50;6.95;;;;;;;;;;5012027;28;20317;-68
2023/01/23 03:25:22;;;;;;;16.65;6.47;;;;;;;;;;5008355;28;20045;-68
2023/01/23 03:27:48;;;;;;;19.38;5.95;;;;;;;;;;4996172;28;20090;-69
2023/01/23 03:30:15;;;;;;;17.27;6.45;;;;;;;;;;5010058;28;20764;-70
2023/01/23 03:32:42;;;;;;;16.95;6.75;;;;;;;;;;5009101;28;20087;-68
2023/01/23 03:35:09;;;;;;;17.42;6.20;;;;;;;;;;5011924;28;20098;-69
2023/01/23 03:37:36;;;;;;;17.05;6.13;;;;;;;;;;5011665;28;20025;-68
2023/01/23 03:42:47;;;;;;;20.80;5.95;;;;;;;;;;5013619;28;20814;-68
2023/01/23 03:45:13;;;;;;;18.83;6.00;;;;;;;;;;5014373;28;20128;-69
2023/01/23 03:47:39;;;;;;;20.60;6.10;;;;;;;;;;5010115;28;20735;-69
2023/01/23 03:50:06;;;;;;;19.27;5.97;;;;;;;;;;5010937;28;20562;-69
2023/01/23 03:52:32;;;;;;;19.42;5.78;;;;;;;;;;5009938;28;20509;-68
2023/01/23 03:54:58;;;;;;;18.67;5.95;;;;;;;;;;5013355;28;20017;-69
2023/01/23 03:57:24;;;;;;;16.90;5.45;;;;;;;;;;5009705;28;20041;-68
2023/01/23 03:59:51;;;;;;;18.48;5.72;;;;;;;;;;4993661;28;20040;-69
2023/01/23 04:02:17;;;;;;;20.02;5.90;;;;;;;;;;5011969;28;20484;-68
2023/01/23 04:04:43;;;;;;;17.40;5.15;;;;;;;;;;5012194;28;20029;-68
2023/01/23 04:07:09;;;;;;;17.80;5.88;;;;;;;;;;5007609;28;20985;-68
2023/01/23 04:09:35;;;;;;;17.73;5.93;;;;;;;;;;4992585;28;20356;-68
2023/01/23 04:12:02;;;;;;;19.55;6.13;;;;;;;;;;4998948;28;20376;-69
2023/01/23 04:14:36;;;;;;;18.58;6.32;;;;;;;;;;4996519;28;20117;-69
2023/01/23 04:17:02;;;;;;;20.48;6.60;;;;;;;;;;5001870;28;20472;-68
2023/01/23 04:19:28;;;;;;;;;;;;;;;;;;4997685;28;20033;-68
2023/01/23 04:21:54;;;;;;;17.00;5.57;;;;;;;;;;5000960;28;20015;-68
2023/01/23 04:24:21;;;;;;;16.40;5.60;;;;;;;;;;4998458;28;20037;-69
2023/01/23 04:26:47;;;;;;;18.58;5.88;;;;;;;;;;4999835;28;20464;-68
2023/01/23 04:29:13;;;;;;;17.13;5.90;;;;;;;;;;5001570;28;20470;-69
2023/01/23 04:31:40;;;;;;;15.82;5.60;;;;;;;;;;4998345;28;21290;-68
2023/01/23 04:34:06;;;;;;;19.45;6.00;;;;;;;;;;4998780;28;20337;-69
2023/01/23 04:36:32;;;;;;;15.95;5.38;;;;;;;;;;4992863;28;20037;-68
2023/01/23 04:38:58;;;;;;;13.27;5.25;;;;;;;;;;5002249;28;20317;-68
2023/01/23 04:41:26;;;;;;;15.82;5.43;;;;;;;;;;4996113;28;20021;-68
2023/01/23 04:43:52;;;;;;;17.17;5.07;;;;;;;;;;5002160;28;20158;-68
2023/01/23 04:46:19;;;;;;;15.48;5.55;;;;;;;;;;5000123;28;20605;-68
2023/01/23 04:48:45;;;;;;;14.18;5.18;;;;;;;;;;5000067;28;20049;-68
2023/01/23 04:51:11;;;;;;;15.30;5.15;;;;;;;;;;4998116;28;20022;-68
2023/01/23 04:53:37;;;;;;;16.25;5.25;;;;;;;;;;4997095;28;20290;-68
2023/01/23 04:56:03;;;;;;;19.45;5.28;;;;;;;;;;4998530;28;20028;-68
2023/01/23 04:58:30;;;;;;;14.38;5.00;;;;;;;;;;4997155;28;20439;-69
2023/01/23 05:01:03;;;;;;;14.48;5.15;;;;;;;;;;4995242;28;20025;-69
2023/01/23 05:03:29;;;;;;;16.67;5.63;;;;;;;;;;4992094;28;20072;-68
2023/01/23 05:05:55;;;;;;;13.88;5.70;;;;;;;;;;5000440;28;20036;-68
2023/01/23 05:08:21;;;;;;;16.08;5.75;;;;;;;;;;4996789;28;20056;-68
2023/01/23 05:10:47;;;;;;;17.77;5.70;;;;;;;;;;5004282;28;20032;-68
2023/01/23 05:13:13;;;;;;;19.10;5.82;;;;;;;;;;5021067;28;20033;-68
2023/01/23 05:15:40;;;;;;;13.98;5.32;;;;;;;;;;5014678;28;20029;-68
2023/01/23 05:18:06;;;;;;;15.50;5.13;;;;;;;;;;5019717;28;20029;-67
2023/01/23 05:20:32;;;;;;;17.92;5.70;;;;;;;;;;5011565;28;20036;-68
2023/01/23 05:22:58;;;;;;;16.75;6.05;;;;;;;;;;4998421;28;20401;-68
2023/01/23 05:25:26;;;;;;;17.80;5.20;;;;;;;;;;5013334;28;20470;-68
2023/01/23 05:27:52;;;;;;;15.57;5.55;;;;;;;;;;5017626;28;20033;-70
2023/01/23 05:30:20;;;;;;;17.70;5.70;;;;;;;;;;5002317;28;20365;-70
2023/01/23 05:32:47;;;;;;;17.73;6.10;;;;;;;;;;5011317;28;20152;-70
2023/01/23 05:35:13;;;;;;;16.52;5.80;;;;;;;;;;5017499;28;20029;-70
2023/01/23 05:37:40;;;;;;;17.60;5.75;;;;;;;;;;5009092;28;20922;-70
2023/01/23 05:40:10;;;;;;;15.40;5.75;;;;;;;;;;4999320;28;20040;-70
2023/01/23 05:42:36;;;;;;;18.60;6.32;;;;;;;;;;5010498;28;20055;-71
2023/01/23 05:45:02;;;;;;;19.45;6.55;;;;;;;;;;5012474;28;20032;-70
2023/01/23 05:47:28;;;;;;;21.13;6.70;;;;;;;;;;5009972;28;20055;-70
2023/01/23 05:49:55;;;;;;;17.67;6.70;;;;;;;;;;5014999;28;20063;-70
2023/01/23 05:52:21;;;;;;;18.65;6.43;;;;;;;;;;5008898;28;20059;-70
2023/01/23 05:54:47;;;;;;;20.67;7.10;;;;;;;;;;5015442;28;20061;-70
2023/01/23 05:57:13;;;;;;;21.50;7.70;;;;;;;;;;5014771;28;20043;-70
2023/01/23 05:59:39;;;;;;;18.25;6.63;;;;;;;;;;5012165;28;20058;-70
2023/01/23 06:02:06;;;;;;;18.85;6.40;;;;;;;;;;5015340;28;20033;-70
2023/01/23 06:04:32;;;;;;;19.10;6.63;;;;;;;;;;5009480;28;20079;-70
2023/01/23 06:06:58;;;;;;;19.88;6.78;;;;;;;;;;5014851;28;20313;-68
2023/01/23 06:09:24;;;;;;;20.13;6.60;;;;;;;;;;4991255;28;20509;-68
2023/01/23 06:11:50;;;;;;;17.50;6.40;;;;;;;;;;4997754;28;20029;-69
2023/01/23 06:14:17;;;;;;;18.30;6.45;;;;;;;;;;4999126;28;20025;-69
2023/01/23 06:16:43;;;;;;;19.73;6.60;;;;;;;;;;5010735;28;20048;-69
2023/01/23 06:19:09;;;;;;;20.08;6.50;;;;;;;;;;5011786;28;20189;-69
2023/01/23 06:21:35;;;;;;;23.05;6.95;;;;;;;;;;5010204;28;20044;-70
2023/01/23 06:24:02;;;;;;;18.08;6.32;;;;;;;;;;5016655;28;20415;-69
2023/01/23 06:26:28;;;;;;;23.27;7.95;;;;;;;;;;5011793;28;20162;-70
2023/01/23 06:28:54;;;;;;;23.45;7.25;;;;;;;;;;4995634;28;20036;-69
2023/01/23 06:31:20;;;;;;;17.42;6.50;;;;;;;;;;5011389;28;20025;-70
2023/01/23 06:33:52;;;;;;;18.75;6.22;;;;;;;;;;5010071;28;20026;-69
2023/01/23 06:36:19;;;;;;;20.35;6.32;;;;;;;;;;5010428;28;20033;-69
2023/01/23 06:38:45;;;;;;;17.75;5.63;;;;;;;;;;5015893;28;20037;-70
2023/01/23 06:41:11;;;;;;;17.75;5.38;;;;;;;;;;4995958;28;20274;-70
2023/01/23 06:43:37;;;;;;;18.52;5.65;;;;;;;;;;4995394;28;20139;-68
2023/01/23 06:46:03;;;;;;;17.52;5.00;;;;;;;;;;4992435;28;20433;-68
2023/01/23 06:48:29;;;;;;;16.92;5.70;;;;;;;;;;5007458;28;20030;-68
2023/01/23 06:50:58;;;;;;;17.23;5.88;;;;;;;;;;5011077;28;20033;-69
2023/01/23 06:53:26;;;;;;;16.52;5.88;;;;;;;;;;4994484;28;20036;-68
2023/01/23 06:55:52;;;;;;;16.50;5.78;;;;;;;;;;5013217;28;20041;-68
2023/01/23 06:58:18;;;;;;;15.63;5.60;;;;;;;;;;4997564;28;20502;-68
2023/01/23 07:00:44;;;;;;;15.73;5.40;;;;;;;;;;5012664;28;20037;-68
2023/01/23 07:03:12;;;;;;;16.65;5.90;;;;;;;;;;5013499;28;20663;-69
2023/01/23 07:05:39;;;;;;;14.35;5.60;;;;;;;;;;5011641;28;20514;-70
2023/01/23 07:08:07;;;;;;;14.77;5.55;;;;;;;;;;5007796;28;20550;-70
2023/01/23 07:10:34;;;;;;;17.17;5.88;;;;;;;;;;4991270;28;20025;-69
2023/01/23 07:13:00;;;;;;;;;;;;;;;;;;4992987;28;20121;-69
2023/01/23 07:15:26;;;;;;;18.98;6.15;;;;;;;;;;4991583;28;20275;-69
2023/01/23 07:17:52;;;;;;;20.25;7.65;;;;;;;;;;4992597;28;20029;-72
2023/01/23 07:20:19;;;;;;;19.42;6.85;;;;;;;;;;4995076;28;20033;-69
2023/01/23 07:22:45;;;;;;;;;;;;;;;;;;4994199;28;20881;-69
2023/01/23 07:25:11;;;;;;;20.17;6.32;;;;;;;;;;4992006;28;19928;-68
2023/01/23 07:27:37;;;;;;;19.63;6.82;;;;;;;;;;4990300;28;20483;-68
2023/01/23 07:30:04;;;;;;;17.20;6.57;;;;;;;;;;4992425;28;20334;-69
2023/01/23 07:32:30;;;;;;;18.02;6.88;;;;;;;;;;4989787;28;20171;-70
2023/01/23 07:34:57;;;;;;;21.67;7.57;;;;;;;;;;4994058;28;20375;-68
2023/01/23 07:37:23;;;;;;;23.23;7.88;;;;;;;;;;4993201;28;20045;-69
2023/01/23 07:39:50;;;;;;;18.52;6.80;;;;;;;;;;4992467;28;20026;-69
2023/01/23 07:42:16;;;;;;;22.70;7.20;;;;;;;;;;4992934;28;20878;-68
2023/01/23 07:44:42;;;;;;;20.42;7.55;;;;;;;;;;4985867;28;20040;-69
2023/01/23 07:47:09;;;;;;;21.85;7.50;;;;;;;;;;4990192;28;20432;-68
2023/01/23 07:49:35;;;;;;;20.27;7.32;;;;;;;;;;5005535;28;20044;-70
2023/01/23 07:52:01;;;;;;;22.08;7.13;;;;;;;;;;4990188;28;20036;-68
2023/01/23 07:54:27;;;;;;;22.48;7.70;;;;;;;;;;4988925;28;20674;-68
2023/01/23 07:56:53;;;;;;;24.05;7.45;;;;;;;;;;4992630;28;20034;-70
2023/01/23 07:59:19;;;;;;;22.98;7.90;;;;;;;;;;4990493;28;20030;-68
2023/01/23 08:01:47;;;;;;;24.83;8.68;;;;;;;;;;4989359;28;20041;-68
2023/01/23 08:04:14;;;;;;;24.23;8.60;;;;;;;;;;4992312;28;20033;-67
2023/01/23 08:06:40;;;;;;;18.77;7.57;;;;;;;;;;4995562;28;20137;-70
2023/01/23 08:09:06;;;;;;;25.15;8.88;;;;;;;;;;5012779;28;20037;-68
2023/01/23 08:11:32;;;;;;;24.92;8.63;;;;;;;;;;5010045;28;20447;-68
2023/01/23 08:13:58;;;;;;;20.10;7.60;;;;;;;;;;5010922;28;20029;-68
2023/01/23 08:16:24;;;;;;;27.55;8.00;;;;;;;;;;4986939;28;20711;-68
2023/01/23 08:18:51;;;;;;;20.23;7.78;;;;;;;;;;4991798;28;20275;-70
2023/01/23 08:21:17;;;;;;;25.10;8.63;;;;;;;;;;5012006;28;20124;-69
2023/01/23 08:23:44;;;;;;;18.60;7.90;;;;;;;;;;5008812;28;20614;-70
2023/01/23 08:26:12;;;;;;;24.33;8.32;;;;;;;;;;5013535;28;20064;-68
2023/01/23 08:28:38;;;;;;;21.25;7.80;;;;;;;;;;5005058;28;20118;-68
2023/01/23 08:31:06;;;;;;;25.13;7.93;;;;;;;;;;5011500;28;20108;-69
2023/01/23 08:33:33;;;;;;;25.48;8.32;;;;;;;;;;5007164;28;20021;-69
2023/01/23 08:35:59;;;;;;;22.15;7.50;;;;;;;;;;4993728;28;20325;-69
2023/01/23 08:38:25;;;;;;;22.17;7.97;;;;;;;;;;5009454;28;20380;-69
2023/01/23 08:40:52;;;;;;;25.70;8.10;;;;;;;;;;5014181;28;20557;-68
2023/01/23 08:43:19;;;;;;;23.17;7.80;;;;;;;;;;5007284;28;20421;-68
2023/01/23 08:45:48;;;;;;;22.88;7.80;;;;;;;;;;5010835;28;20677;-68
2023/01/23 08:48:15;;;;;;;23.85;8.00;;;;;;;;;;5011285;28;20029;-68
2023/01/23 08:50:41;;;;;;;25.10;8.32;;;;;;;;;;5007954;28;20372;-70
2023/01/23 08:53:07;;;;;;;19.48;7.20;;;;;;;;;;5012572;28;20467;-68
2023/01/23 08:55:35;;;;;;;22.90;7.47;;;;;;;;;;5008687;28;20482;-68
2023/01/23 08:58:01;;;;;;;21.13;6.97;;;;;;;;;;5015411;28;20025;-68
2023/01/23 09:00:27;;;;;;;19.85;6.53;;;;;;;;;;5008326;28;20094;-69
2023/01/23 09:02:54;;;;;;;24.90;7.55;;;;;;;;;;5014686;28;20165;-68
2023/01/23 09:05:20;;;;;;;18.15;6.40;;;;;;;;;;5012185;28;20048;-68
2023/01/23 09:07:47;;;;;;;22.08;7.70;;;;;;;;;;5012735;28;20054;-68
2023/01/23 09:10:14;;;;;;;20.27;6.88;;;;;;;;;;5001201;28;20757;-69
2023/01/23 09:12:42;;;;;;;20.75;7.82;;;;;;;;;;5008234;28;20099;-68
2023/01/23 09:15:08;;;;;;;22.50;7.80;;;;;;;;;;4996028;28;20056;-69
2023/01/23 09:17:35;;;;;;;21.45;7.63;;;;;;;;;;4993567;28;20033;-68
2023/01/23 09:20:04;;;;;;;22.17;7.38;;;;;;;;;;5015534;28;20028;-70
2023/01/23 09:22:30;;;;;;;23.25;6.88;;;;;;;;;;5011026;28;20510;-69
2023/01/23 09:24:57;;;;;;;16.88;6.43;;;;;;;;;;4998465;28;20039;-70
2023/01/23 09:27:23;;;;;;;24.15;7.35;;;;;;;;;;5009282;28;20029;-71
2023/01/23 09:29:49;;;;;;;21.10;6.93;;;;;;;;;;4996242;28;20531;-68
2023/01/23 09:32:15;;;;;;;;;;;;;;;;;;5015783;28;20029;-70
2023/01/23 09:34:42;;;;;;;16.63;5.43;;;;;;;;;;4991946;28;20378;-68
2023/01/23 09:37:08;;;;;;;21.50;6.20;;;;;;;;;;5012777;28;20044;-68
2023/01/23 09:39:34;;;;;;;22.20;6.47;;;;;;;;;;5009714;28;20490;-68
2023/01/23 09:42:08;;;;;;;24.25;6.57;;;;;;;;;;5015730;28;20297;-68
2023/01/23 09:44:42;;;;;;;18.92;6.97;;;;;;;;;;5008267;28;20029;-69
2023/01/23 09:47:20;;;;;;;22.48;7.00;;;;;;;;;;4996374;28;20075;-68
2023/01/23 09:49:49;;;;;;;25.35;7.05;;;;;;;;;;5015510;28;20025;-67
2023/01/23 09:52:23;;;;;;;20.35;6.90;;;;;;;;;;5016025;28;20776;-70
2023/01/23 09:54:54;;;;;;;21.23;7.30;;;;;;;;;;5012957;28;20267;-69
2023/01/23 09:57:23;;;;;;;21.27;7.35;;;;;;;;;;4996688;28;20169;-69
2023/01/23 09:59:57;;;;;;;24.77;8.05;;;;;;;;;;5016191;28;20025;-69
2023/01/23 10:02:24;;;;;;;25.40;7.47;;;;;;;;;;4997298;28;20492;-68
2023/01/23 10:04:51;;;;;;;19.58;6.78;;;;;;;;;;5018066;28;20028;-68
2023/01/23 10:07:24;;;;;;;23.52;7.05;;;;;;;;;;5014618;28;20213;-68
2023/01/23 10:09:56;;;;;;;17.83;7.82;;;;;;;;;;5017678;28;20502;-68
2023/01/23 10:12:39;;;;;;;22.95;8.15;;;;;;;;;;5011761;28;20064;-68
2023/01/23 10:15:05;;;;;;;23.02;8.00;;;;;;;;;;5012674;28;20021;-68
2023/01/23 10:17:37;;;;;;;19.33;6.97;;;;;;;;;;5007920;28;20443;-69
2023/01/23 10:20:16;;;;;;;21.45;6.93;;;;;;;;;;5010928;28;20045;-69
2023/01/23 10:23:01;;;;;;;20.25;7.00;;;;;;;;;;5011709;28;20399;-70
2023/01/23 10:25:31;;;;;;;19.17;6.82;;;;;;;;;;4993443;28;20037;-70
2023/01/23 10:28:13;;;;;;;26.45;8.05;;;;;;;;;;5013422;28;20189;-69
2023/01/23 10:30:40;;;;;;;20.85;7.72;;;;;;;;;;5009758;28;21253;-70
2023/01/23 10:33:14;;;;;;;26.98;9.63;;;;;;;;;;5014650;28;20372;-70
2023/01/23 10:35:52;;;;;;;26.33;8.20;;;;;;;;;;4990773;28;20029;-68
2023/01/23 10:38:18;;;;;;;;;;;;;;;;;;5009190;28;20463;-69
2023/01/23 10:43:31;;;;;;;23.40;7.55;;;;;;;;;;5007251;28;20256;-69
2023/01/23 10:45:57;;;;;;;20.38;7.25;;;;;;;;;;4996824;28;20422;-69
2023/01/23 10:48:39;;;;;;;20.25;6.68;;;;;;;;;;4989362;28;20288;-69
2023/01/23 10:51:23;;;;;;;23.70;6.82;;;;;;;;;;5010848;28;20021;-68
2023/01/23 10:54:10;;;;;;;23.52;6.97;;;;;;;;;;4991125;28;20364;-69
2023/01/23 10:56:39;;;;;;;18.23;6.70;;;;;;;;;;4995991;28;20037;-69
2023/01/23 10:59:05;;;;;;;16.50;5.90;;;;;;;;;;5014847;28;20125;-69
2023/01/23 11:01:31;;;;;;;;;;;;;;;;;;5010265;28;20087;-69
2023/01/23 11:04:08;;;;;;;19.88;6.57;;;;;;;;;;5014435;28;20266;-69
2023/01/23 11:06:34;;;;;;;23.48;6.07;;;;;;;;;;5008191;28;20068;-69
2023/01/23 11:09:01;;;;;;;19.52;6.22;;;;;;;;;;4990692;28;20812;-69
2023/01/23 11:11:27;;;;;;;;;;;;;;;;;;5005473;28;20877;-70
2023/01/23 11:14:05;;;;;;;19.85;6.75;;;;;;;;;;5010346;28;19913;-69
2023/01/23 11:16:31;;;;;;;24.85;6.72;;;;;;;;;;5004520;28;20270;-69
2023/01/23 11:19:03;;;;;;;23.20;6.38;;;;;;;;;;4996113;28;20025;-69
2023/01/23 11:21:32;;;;;;;20.92;5.65;;;;;;;;;;5009954;28;20079;-70
2023/01/23 11:24:17;;;;;;;15.88;5.95;;;;;;;;;;4996753;28;20132;-69
2023/01/23 11:26:43;;;;;;;22.15;5.60;;;;;;;;;;5010545;28;20059;-70
2023/01/23 11:29:20;;;;;;;18.30;5.40;;;;;;;;;;5009920;28;20029;-69
2023/01/23 11:31:47;;;;;;;17.23;5.28;;;;;;;;;;5011166;28;20139;-69
2023/01/23 11:34:16;;;;;;;18.33;4.90;;;;;;;;;;5012286;28;20024;-70
2023/01/23 11:36:51;;;;;;;23.30;5.93;;;;;;;;;;5008778;28;21018;-70
2023/01/23 11:39:24;;;;;;;21.08;6.18;;;;;;;;;;4997106;28;20035;-70
2023/01/23 11:41:50;;;;;;;20.75;5.25;;;;;;;;;;5012240;28;20612;-69
2023/01/23 11:44:23;;;;;;;18.17;5.50;;;;;;;;;;5015442;28;20027;-70
2023/01/23 11:47:08;;;;;;;18.77;5.40;;;;;;;;;;5015032;28;20418;-70
2023/01/23 11:49:37;;;;;;;17.00;4.97;;;;;;;;;;4994850;28;20340;-70
2023/01/23 11:52:22;;;;;;;17.15;5.13;;;;;;;;;;5013392;28;20033;-70
2023/01/23 11:54:51;;;;;;;17.13;5.47;;;;;;;;;;4993319;28;20049;-70
2023/01/23 11:57:22;;;;;;;19.65;6.97;;;;;;;;;;4995555;28;20560;-70
2023/01/23 12:00:07;;;;;;;23.60;6.55;;;;;;;;;;5010016;28;20033;-70
2023/01/23 12:02:34;;;;;;;23.02;6.70;;;;;;;;;;5005154;28;20119;-72
2023/01/23 12:05:07;;;;;;;15.95;5.25;;;;;;;;;;4991684;28;20486;-69
2023/01/23 12:07:40;;;;;;;14.25;5.40;;;;;;;;;;5004740;28;20575;-70
2023/01/23 12:10:09;;;;;;;18.27;6.57;;;;;;;;;;5008771;28;20482;-70
2023/01/23 12:12:54;;;;;;;19.98;6.20;;;;;;;;;;4989503;28;20029;-70
2023/01/23 12:15:34;;;;;;;15.10;5.38;;;;;;;;;;5003669;28;20373;-70
2023/01/23 12:18:23;;;;;;;16.23;5.22;;;;;;;;;;5006623;28;20032;-70
2023/01/23 12:20:57;;;;;;;18.50;5.55;;;;;;;;;;4978994;28;20574;-70
2023/01/23 12:23:30;;;;;;;18.75;5.57;;;;;;;;;;5000598;28;20048;-70
2023/01/23 12:26:21;;;;;;;13.88;4.95;;;;;;;;;;4988788;28;20021;-70
2023/01/23 12:29:06;;;;;;;19.48;6.03;;;;;;;;;;4990594;28;20050;-70
2023/01/23 12:31:56;;;;;;;18.30;6.70;;;;;;;;;;4990443;28;20036;-71
2023/01/23 12:34:32;;;;;;;25.17;11.63;;;;;;;;;;4985507;28;20407;-71
2023/01/23 12:36:59;;;;;;;15.75;7.63;;;;;;;;;;5017050;28;20033;-73
2023/01/23 12:39:46;;;;;;;21.08;7.38;;;;;;;;;;5013532;28;20025;-71
2023/01/23 12:42:19;;;;;;;13.95;5.82;;;;;;;;;;5018796;28;20051;-72
2023/01/23 12:44:58;;;;;;;15.55;4.30;;;;;;;;;;5018543;28;20526;-71
2023/01/23 12:47:26;;;;;;;18.65;6.28;;;;;;;;;;5010897;28;20029;-70
2023/01/23 12:49:58;;;;;;;16.38;6.35;;;;;;;;;;5001813;28;20037;-70
2023/01/23 12:52:50;;;;;;;19.98;6.18;;;;;;;;;;5013161;28;20021;-71
2023/01/23 12:55:25;;;;;;;17.42;5.60;;;;;;;;;;5014007;28;20037;-70
2023/01/23 12:57:54;;;;;;;16.98;5.35;;;;;;;;;;5004615;28;20625;-70
2023/01/23 13:00:20;;;;;;;18.83;5.13;;;;;;;;;;5015056;28;20040;-70
2023/01/23 13:02:55;;;;;;;;;;;;;;;;;;5016772;28;20501;-71
2023/01/23 13:29:03;;;;;;;14.50;5.63;;;;;;;;;;4873800;29;20865;-74
2023/01/23 13:31:34;;;;;;;16.65;5.35;;;;;;;;;;4874633;29;20554;-73
2023/01/23 13:34:00;;;;;;;15.18;5.72;;;;;;;;;;4878789;29;20802;-74
2023/01/23 13:36:28;;;;;;;18.05;6.20;;;;;;;;;;4874091;29;20067;-73
2023/01/23 13:39:05;;;;;;;16.23;6.30;;;;;;;;;;4873473;29;20373;-73
2023/01/23 13:41:32;;;;;;;18.63;5.97;;;;;;;;;;4870825;29;20039;-73
2023/01/23 13:44:03;;;;;;;15.02;5.72;;;;;;;;;;4865550;29;20100;-74
2023/01/23 13:46:38;;;;;;;17.13;7.60;;;;;;;;;;4861938;29;20486;-73
2023/01/23 13:56:37;;;;;;;18.10;7.33;;;;;;;;;;4863991;29;20047;-73
2023/01/23 13:57:33;;;;;;;16.02;6.03;;;;;;;;;;4859260;29;20502;-73
2023/01/23 13:59:59;;;;;;;16.30;5.97;;;;;;;;;;4859204;29;20036;-72
2023/01/23 14:05:23;;;;;;;18.25;6.00;;;;;;;;;;4858965;29;20052;-72
2023/01/23 14:07:52;;;;;;;18.75;5.40;;;;;;;;;;4862348;29;21836;-72
2023/01/23 14:10:20;;;;;;;14.60;5.30;;;;;;;;;;4858862;29;20024;-72
2023/01/23 14:12:46;;;;;;;15.07;4.88;;;;;;;;;;4864304;29;20726;-72
2023/01/23 14:18:03;;;;;;;12.23;4.90;;;;;;;;;;4863958;29;20119;-71
2023/01/23 14:20:31;;;;;;;15.38;6.10;;;;;;;;;;4841256;29;20045;-74
2023/01/23 14:22:57;;;;;;;13.82;5.90;;;;;;;;;;4864741;29;20097;-72
2023/01/23 14:25:24;;;;;;;12.27;5.18;;;;;;;;;;4859698;29;20155;-71
2023/01/23 14:27:50;;;;;;;;;;;;;;;;;;4862068;29;20033;-71
2023/01/23 14:30:17;;;;;;;15.23;6.28;;;;;;;;;;4858963;29;19942;-71
2023/01/23 14:32:47;;;;;;;11.88;4.63;;;;;;;;;;4859229;29;20529;-71
2023/01/23 14:35:23;;;;;;;9.00;3.40;;;;;;;;;;4860609;29;20259;-71
2023/01/23 14:37:50;;;;;;;9.32;3.60;;;;;;;;;;4862638;29;20180;-71
2023/01/23 14:40:17;;;;;;;9.15;3.30;;;;;;;;;;4859552;29;20449;-71
2023/01/23 14:42:43;;;;;;;9.13;3.20;;;;;;;;;;4870396;29;20523;-71
2023/01/23 14:45:13;;;;;;;9.82;3.40;;;;;;;;;;4861228;29;20260;-71
2023/01/23 14:47:42;;;;;;;7.35;2.75;;;;;;;;;;4860197;29;20358;-71
2023/01/23 14:50:10;;;;;;;11.43;5.07;;;;;;;;;;4863273;29;20032;-71
2023/01/23 14:52:37;;;;;;;19.10;12.60;;;;;;;;;;4845337;29;20028;-70
2023/01/23 14:55:03;;;;;;;18.00;12.20;;;;;;;;;;4863572;29;20043;-72
2023/01/23 14:57:29;;;;;;;13.00;7.05;;;;;;;;;;4861847;29;20554;-71
2023/01/23 14:59:56;;;;;;;9.95;5.00;;;;;;;;;;4861302;29;20071;-72
2023/01/23 15:02:35;;;;;;;8.82;4.30;;;;;;;;;;4859273;29;20123;-70
2023/01/23 15:05:08;;;;;;;9.40;3.60;;;;;;;;;;4862096;29;20487;-71
2023/01/23 15:07:41;;;;;;;9.02;4.22;;;;;;;;;;4860046;29;20147;-71
2023/01/23 15:10:18;;;;;;;12.77;7.20;;;;;;;;;;4862564;29;20078;-71
2023/01/23 15:12:58;;;;;;;10.35;3.78;;;;;;;;;;4859474;29;20086;-71
2023/01/23 15:15:25;;;;;;;9.15;3.50;;;;;;;;;;4859365;29;20035;-71
2023/01/23 15:17:53;;;;;;;8.80;3.30;;;;;;;;;;4862527;29;20032;-71
2023/01/23 15:20:30;;;;;;;8.85;3.00;;;;;;;;;;4860861;29;20029;-71
2023/01/23 15:22:57;;;;;;;11.43;4.70;;;;;;;;;;4864517;29;20047;-72
2023/01/23 15:25:31;;;;;;;12.27;5.72;;;;;;;;;;4842768;29;20584;-73